createdAt,value
2022-11-19T00:01:28.951Z,13.25
2022-11-19T00:03:56.648Z,13.52
2022-11-19T00:06:27.935Z,13.07
2022-11-19T00:08:55.907Z,12.60
2022-11-19T00:11:58.890Z,15.13
2022-11-19T00:14:25.957Z,14.98
2022-11-19T00:16:53.018Z,13.30
2022-11-19T00:19:20.898Z,15.02
2022-11-19T00:21:49.784Z,14.88
2022-11-19T00:24:17.027Z,15.88
2022-11-19T00:26:44.439Z,17.30
2022-11-19T00:29:16.837Z,16.73
2022-11-19T00:31:45.204Z,18.20
2022-11-19T00:34:12.281Z,16.38
2022-11-19T00:36:39.467Z,15.80
2022-11-19T00:39:06.633Z,16.42
2022-11-19T00:41:33.627Z,16.30
2022-11-19T00:44:00.632Z,15.93
2022-11-19T00:46:31.619Z,17.17
2022-11-19T00:49:00.377Z,15.57
2022-11-19T00:51:30.643Z,15.48
2022-11-19T00:53:58.289Z,15.43
2022-11-19T00:56:27.453Z,14.10
2022-11-19T00:58:55.471Z,15.90
2022-11-19T01:01:25.218Z,16.13
2022-11-19T01:03:52.607Z,17.25
2022-11-19T01:06:22.741Z,16.42
2022-11-19T01:08:51.701Z,16.52
2022-11-19T01:11:25.944Z,14.20
2022-11-19T01:13:53.496Z,15.30
2022-11-19T01:16:27.177Z,17.85
2022-11-19T01:18:58.885Z,21.60
2022-11-19T01:21:30.787Z,21.67
2022-11-19T01:23:58.859Z,23.08
2022-11-19T01:26:27.531Z,20.15
2022-11-19T01:28:55.094Z,21.08
2022-11-19T01:31:26.633Z,20.08
2022-11-19T01:33:54.218Z,22.52
2022-11-19T01:36:24.936Z,23.42
2022-11-19T01:38:52.394Z,23.58
2022-11-19T01:41:23.329Z,25.23
2022-11-19T01:44:03.457Z,23.45
2022-11-19T01:46:36.408Z,22.83
2022-11-19T01:49:08.359Z,20.92
2022-11-19T01:51:42.700Z,23.45
2022-11-19T01:54:24.385Z,22.88
2022-11-19T01:56:53.109Z,23.10
2022-11-19T01:59:21.072Z,22.58
2022-11-19T02:01:48.697Z,21.55
2022-11-19T02:04:18.070Z,21.20
2022-11-19T02:06:46.136Z,22.98
2022-11-19T02:09:13.283Z,21.48
2022-11-19T02:11:57.649Z,20.15
2022-11-19T02:14:36.538Z,21.77
2022-11-19T02:17:26.675Z,21.85
2022-11-19T02:20:14.982Z,20.70
2022-11-19T02:23:15.329Z,20.77
2022-11-19T02:26:19.617Z,21.40
2022-11-19T02:28:53.046Z,21.70
2022-11-19T02:31:24.792Z,22.38
2022-11-19T02:34:25.263Z,25.60
2022-11-19T02:37:08.865Z,26.05
2022-11-19T02:39:49.303Z,24.60
2022-11-19T02:43:01.681Z,24.98
2022-11-19T02:45:52.059Z,23.27
2022-11-19T02:48:29.043Z,25.83
2022-11-19T02:51:01.126Z,26.27
2022-11-19T02:53:28.672Z,28.58
2022-11-19T02:56:13.800Z,27.95
2022-11-19T02:59:11.282Z,29.83
2022-11-19T03:02:01.151Z,29.73
2022-11-19T03:04:30.594Z,28.63
2022-11-19T03:07:11.310Z,26.55
2022-11-19T03:09:44.881Z,28.80
2022-11-19T03:12:42.005Z,28.60
2022-11-19T03:15:46.900Z,28.20
2022-11-19T03:18:22.894Z,29.55
2022-11-19T03:21:02.846Z,30.67
2022-11-19T03:23:40.665Z,29.75
2022-11-19T03:26:26.734Z,29.95
2022-11-19T03:28:56.521Z,33.38
2022-11-19T03:31:27.040Z,33.22
2022-11-19T03:33:59.816Z,36.25
2022-11-19T03:36:35.422Z,34.55
2022-11-19T03:39:09.697Z,34.13
2022-11-19T03:44:34.049Z,31.80
2022-11-19T03:47:07.634Z,32.08
2022-11-19T03:49:40.489Z,32.00
2022-11-19T03:52:15.863Z,33.00
2022-11-19T03:54:43.532Z,33.97
2022-11-19T03:57:15.189Z,33.10
2022-11-19T03:59:42.353Z,36.10
2022-11-19T04:02:11.997Z,31.23
2022-11-19T04:04:39.151Z,32.55
2022-11-19T04:07:20.836Z,34.72
2022-11-19T04:09:49.477Z,36.42
2022-11-19T04:12:23.003Z,35.05
2022-11-19T04:14:51.242Z,35.67
2022-11-19T04:17:19.775Z,34.72
2022-11-19T04:19:46.947Z,40.60
2022-11-19T04:22:13.982Z,45.55
2022-11-19T04:24:40.960Z,46.47
2022-11-19T04:27:07.958Z,48.50
2022-11-19T04:29:36.710Z,48.83
2022-11-19T04:32:03.996Z,50.35
2022-11-19T04:34:30.962Z,50.78
2022-11-19T04:36:57.961Z,53.65
2022-11-19T04:39:25.168Z,51.17
2022-11-19T04:41:52.504Z,53.70
2022-11-19T04:44:19.489Z,53.63
2022-11-19T04:46:46.676Z,51.55
2022-11-19T04:49:13.955Z,50.05
2022-11-19T04:51:40.986Z,52.55
2022-11-19T04:54:10.846Z,53.00
2022-11-19T04:56:37.809Z,49.95
2022-11-19T04:59:05.910Z,48.25
2022-11-19T05:01:33.145Z,50.25
2022-11-19T05:04:00.236Z,47.25
2022-11-19T05:06:27.309Z,47.20
2022-11-19T05:08:54.329Z,47.33
2022-11-19T05:11:21.271Z,47.15
2022-11-19T05:13:48.253Z,51.47
2022-11-19T05:16:15.198Z,53.75
2022-11-19T05:18:42.305Z,52.92
2022-11-19T05:21:10.366Z,53.40
2022-11-19T05:23:37.734Z,48.60
2022-11-19T05:26:05.287Z,50.50
2022-11-19T05:28:39.165Z,52.97
2022-11-19T05:33:35.401Z,52.40
2022-11-19T05:36:03.824Z,51.00
2022-11-19T05:38:31.298Z,51.83
2022-11-19T05:40:59.415Z,56.30
2022-11-19T05:43:27.270Z,55.08
2022-11-19T05:45:54.257Z,53.38
2022-11-19T05:48:21.300Z,59.25
2022-11-19T05:50:48.278Z,55.47
2022-11-19T05:53:15.318Z,55.13
2022-11-19T05:55:42.367Z,54.35
2022-11-19T05:58:09.756Z,50.78
2022-11-19T06:00:36.781Z,55.30
2022-11-19T06:03:03.902Z,56.28
2022-11-19T06:05:35.869Z,56.00
2022-11-19T06:08:06.720Z,55.15
2022-11-19T06:10:33.882Z,54.67
2022-11-19T06:13:01.736Z,57.00
2022-11-19T06:15:28.792Z,52.67
2022-11-19T06:17:57.330Z,54.63
2022-11-19T06:20:29.423Z,56.13
2022-11-19T06:22:56.771Z,51.60
2022-11-19T06:25:24.135Z,52.47
2022-11-19T06:27:51.164Z,53.40
2022-11-19T06:30:18.857Z,52.97
2022-11-19T06:32:46.070Z,53.60
2022-11-19T06:35:14.495Z,49.67
2022-11-19T06:37:41.627Z,52.75
2022-11-19T06:40:10.474Z,48.22
2022-11-19T06:42:38.027Z,50.75
2022-11-19T06:45:13.276Z,50.70
2022-11-19T06:47:42.733Z,49.80
2022-11-19T06:50:11.187Z,46.83
2022-11-19T06:52:38.549Z,46.85
2022-11-19T06:55:06.136Z,46.20
2022-11-19T06:57:33.271Z,44.90
2022-11-19T07:00:00.704Z,45.67
2022-11-19T07:02:28.397Z,46.30
2022-11-19T07:04:55.461Z,47.42
2022-11-19T07:07:22.513Z,47.20
2022-11-19T07:09:49.609Z,45.50
2022-11-19T07:12:16.663Z,46.20
2022-11-19T07:14:43.894Z,47.33
2022-11-19T07:17:11.359Z,45.47
2022-11-19T07:19:38.603Z,47.00
2022-11-19T07:22:05.852Z,45.53
2022-11-19T07:24:32.904Z,46.95
2022-11-19T07:26:59.896Z,43.08
2022-11-19T07:29:31.102Z,43.20
2022-11-19T07:31:58.163Z,44.50
2022-11-19T07:34:25.154Z,47.13
2022-11-19T07:36:52.138Z,46.95
2022-11-19T07:39:19.368Z,43.33
2022-11-19T07:42:05.074Z,44.65
2022-11-19T07:44:33.649Z,43.00
2022-11-19T07:47:00.843Z,44.83
2022-11-19T07:49:29.383Z,41.75
2022-11-19T07:51:56.559Z,44.10
2022-11-19T07:54:23.622Z,43.08
2022-11-19T07:56:50.898Z,45.08
2022-11-19T07:59:18.832Z,44.33
2022-11-19T08:01:46.494Z,46.03
2022-11-19T08:04:13.627Z,42.67
2022-11-19T08:06:40.667Z,44.17
2022-11-19T08:09:07.782Z,41.47
2022-11-19T08:11:34.901Z,40.78
2022-11-19T08:14:02.400Z,40.88
2022-11-19T08:16:51.371Z,40.78
2022-11-19T08:19:19.284Z,40.90
2022-11-19T08:21:49.750Z,41.30
2022-11-19T08:24:20.431Z,42.60
2022-11-19T08:26:48.872Z,41.25
2022-11-19T08:29:20.167Z,42.00
2022-11-19T08:31:48.811Z,39.63
2022-11-19T08:34:17.272Z,42.38
2022-11-19T08:36:44.867Z,38.58
2022-11-19T08:39:12.319Z,39.75
2022-11-19T08:41:58.076Z,42.20
2022-11-19T08:44:25.151Z,40.65
2022-11-19T08:46:52.614Z,40.22
2022-11-19T08:49:20.213Z,43.88
2022-11-19T08:51:47.327Z,41.10
2022-11-19T08:54:14.385Z,43.17
2022-11-19T08:56:41.514Z,42.72
2022-11-19T08:59:09.296Z,39.85
2022-11-19T09:01:36.465Z,41.13
2022-11-19T09:04:03.770Z,39.60
2022-11-19T09:06:34.941Z,38.20
2022-11-19T09:09:03.835Z,39.15
2022-11-19T09:11:36.297Z,37.70
2022-11-19T09:14:07.098Z,39.50
2022-11-19T09:16:35.284Z,38.00
2022-11-19T09:19:02.624Z,37.03
2022-11-19T09:21:29.841Z,37.50
2022-11-19T09:23:56.847Z,37.55
2022-11-19T09:26:24.068Z,36.80
2022-11-19T09:28:51.292Z,35.65
2022-11-19T09:31:19.977Z,36.90
2022-11-19T09:33:50.674Z,37.50
2022-11-19T09:36:19.563Z,36.33
2022-11-19T09:38:48.148Z,36.63
2022-11-19T09:41:18.348Z,37.55
2022-11-19T09:44:19.890Z,37.10
2022-11-19T09:47:18.511Z,35.78
2022-11-19T09:49:51.358Z,36.83
2022-11-19T09:52:21.848Z,32.08
2022-11-19T09:54:52.965Z,33.30
2022-11-19T09:57:50.806Z,32.55
2022-11-19T10:00:23.190Z,31.15
2022-11-19T10:02:50.612Z,29.92
2022-11-19T10:05:31.344Z,27.58
2022-11-19T10:08:28.753Z,27.10
2022-11-19T10:11:04.865Z,26.58
2022-11-19T10:13:55.842Z,25.48
2022-11-19T10:17:02.837Z,26.95
2022-11-19T10:20:13.471Z,25.45
2022-11-19T10:22:57.199Z,25.33
2022-11-19T10:25:32.776Z,25.92
2022-11-19T10:28:13.267Z,25.63
2022-11-19T10:30:48.497Z,24.88
2022-11-19T10:33:26.068Z,24.48
2022-11-19T10:36:01.693Z,25.85
2022-11-19T10:38:50.957Z,24.50
2022-11-19T10:41:47.941Z,25.65
2022-11-19T10:44:40.624Z,25.48
2022-11-19T10:47:18.707Z,26.83
2022-11-19T10:49:51.880Z,28.88
2022-11-19T10:52:41.299Z,24.83
2022-11-19T10:55:29.481Z,23.92
2022-11-19T10:58:15.490Z,25.38
2022-11-19T11:00:43.155Z,26.63
2022-11-19T11:03:44.059Z,27.00
2022-11-19T11:06:12.243Z,28.35
2022-11-19T11:08:56.447Z,26.10
2022-11-19T11:11:51.307Z,26.73
2022-11-19T11:17:22.097Z,25.40
2022-11-19T11:19:59.104Z,25.30
2022-11-19T11:22:27.778Z,25.38
2022-11-19T11:24:55.457Z,24.38
2022-11-19T11:27:31.126Z,25.85
2022-11-19T11:30:16.335Z,25.73
2022-11-19T11:32:44.253Z,26.50
2022-11-19T11:35:31.953Z,24.48
2022-11-19T11:38:02.241Z,23.92
2022-11-19T11:40:30.536Z,28.23
2022-11-19T11:42:58.283Z,24.60
2022-11-19T11:45:35.805Z,26.10
2022-11-19T11:48:13.728Z,23.38
2022-11-19T11:50:45.928Z,24.20
2022-11-19T11:53:16.845Z,26.25
2022-11-19T11:55:44.030Z,25.27
2022-11-19T11:58:34.909Z,24.05
2022-11-19T12:01:20.331Z,23.98
2022-11-19T12:03:57.001Z,25.90
2022-11-19T12:06:33.018Z,23.58
2022-11-19T12:09:09.051Z,24.05
2022-11-19T12:11:56.206Z,23.17
2022-11-19T12:14:58.374Z,24.30
2022-11-19T12:17:57.580Z,25.20
2022-11-19T12:21:01.369Z,25.35
2022-11-19T12:24:02.653Z,24.23
2022-11-19T12:26:41.753Z,24.35
2022-11-19T12:29:36.148Z,25.23
2022-11-19T12:32:32.501Z,25.70
2022-11-19T12:35:20.809Z,22.98
2022-11-19T12:37:53.524Z,25.40
2022-11-19T12:40:41.123Z,24.83
2022-11-19T12:43:24.781Z,24.67
2022-11-19T12:46:33.947Z,24.50
2022-11-19T12:49:25.511Z,24.60
2022-11-19T12:52:10.661Z,23.70
2022-11-19T12:55:04.561Z,23.63
2022-11-19T12:57:37.487Z,23.00
2022-11-19T13:00:18.961Z,26.55
2022-11-19T13:03:01.019Z,22.13
2022-11-19T13:05:48.147Z,19.73
2022-11-19T13:08:30.352Z,21.75
2022-11-19T13:11:24.160Z,22.65
2022-11-19T13:14:08.123Z,22.52
2022-11-19T13:16:36.100Z,19.02
2022-11-19T13:19:37.174Z,21.00
2022-11-19T13:22:14.027Z,19.15
2022-11-19T13:24:55.058Z,18.92
2022-11-19T13:27:26.376Z,18.55
2022-11-19T13:30:08.137Z,17.23
2022-11-19T13:32:48.266Z,17.73
2022-11-19T13:35:27.983Z,17.60
2022-11-19T13:38:35.992Z,18.98
2022-11-19T13:41:36.479Z,17.15
2022-11-19T13:44:23.527Z,18.35
2022-11-19T13:47:00.504Z,18.27
2022-11-19T13:49:36.614Z,20.65
2022-11-19T13:52:17.643Z,21.30
2022-11-19T13:54:46.194Z,19.08
2022-11-19T13:57:48.216Z,19.70
2022-11-19T14:00:26.663Z,18.08
2022-11-19T14:03:17.944Z,19.95
2022-11-19T14:06:48.453Z,17.27
2022-11-19T14:09:39.566Z,17.02
2022-11-19T14:12:44.317Z,17.90
2022-11-19T14:16:13.800Z,17.73
2022-11-19T14:19:05.135Z,17.52
2022-11-19T14:21:50.632Z,15.52
2022-11-19T14:24:46.670Z,17.63
2022-11-19T14:27:27.697Z,15.63
2022-11-19T14:30:06.745Z,18.10
2022-11-19T14:32:59.512Z,18.75
2022-11-19T14:35:26.845Z,20.90
2022-11-19T14:38:21.626Z,16.88
2022-11-19T14:41:04.390Z,16.67
2022-11-19T14:43:49.745Z,18.65
2022-11-19T14:46:16.673Z,20.73
2022-11-19T14:48:43.778Z,18.92
2022-11-19T14:51:27.997Z,18.85
2022-11-19T14:54:32.230Z,16.73
2022-11-19T14:57:08.032Z,18.55
2022-11-19T14:59:38.408Z,17.73
2022-11-19T15:02:18.994Z,18.63
2022-11-19T15:04:59.835Z,17.77
2022-11-19T15:07:55.614Z,20.70
2022-11-19T15:10:32.236Z,20.17
2022-11-19T15:13:18.742Z,19.48
2022-11-19T15:15:49.791Z,20.00
2022-11-19T15:18:41.645Z,17.73
2022-11-19T15:21:33.485Z,18.50
2022-11-19T15:24:09.852Z,16.92
2022-11-19T15:26:56.156Z,17.55
2022-11-19T15:29:53.528Z,18.13
2022-11-19T15:33:16.711Z,18.80
2022-11-19T15:36:39.807Z,18.80
2022-11-19T15:39:18.051Z,17.92
2022-11-19T15:42:01.620Z,19.15
2022-11-19T15:44:37.596Z,19.33
2022-11-19T15:47:13.818Z,20.58
2022-11-19T15:49:43.151Z,22.63
2022-11-19T15:52:16.098Z,25.58
2022-11-19T15:54:45.307Z,28.00
2022-11-19T15:57:26.320Z,28.35
2022-11-19T16:00:02.276Z,22.10
2022-11-19T16:02:44.039Z,18.52
2022-11-19T16:05:30.298Z,17.67
2022-11-19T16:08:04.952Z,19.80
2022-11-19T16:10:37.038Z,18.67
2022-11-19T16:13:40.126Z,17.33
2022-11-19T16:16:48.773Z,17.48
2022-11-19T16:19:17.669Z,18.48
2022-11-19T16:21:51.303Z,17.13
2022-11-19T16:24:39.848Z,17.77
2022-11-19T16:27:13.089Z,19.75
2022-11-19T16:29:42.917Z,19.23
2022-11-19T16:32:18.287Z,23.48
2022-11-19T16:34:45.912Z,25.13
2022-11-19T16:37:16.405Z,21.27
2022-11-19T16:39:50.729Z,19.05
2022-11-19T16:42:26.591Z,19.83
2022-11-19T16:44:54.649Z,19.42
2022-11-19T16:47:28.767Z,18.23
2022-11-19T16:52:46.068Z,24.13
2022-11-19T16:55:18.990Z,36.95
2022-11-19T16:57:49.256Z,31.30
2022-11-19T17:00:19.553Z,29.33
2022-11-19T17:02:48.130Z,23.27
2022-11-19T17:05:18.928Z,23.63
2022-11-19T17:07:52.580Z,21.67
2022-11-19T17:10:23.006Z,22.40
2022-11-19T17:13:04.120Z,21.48
2022-11-19T17:15:43.208Z,19.50
2022-11-19T17:18:10.196Z,17.23
2022-11-19T17:20:37.185Z,18.25
2022-11-19T17:23:15.061Z,19.05
2022-11-19T17:26:09.512Z,16.27
2022-11-19T17:28:41.193Z,19.40
2022-11-19T17:31:24.527Z,16.77
2022-11-19T17:34:00.607Z,18.70
2022-11-19T17:36:27.981Z,19.17
2022-11-19T17:38:56.145Z,18.55
2022-11-19T17:41:45.827Z,17.83
2022-11-19T17:44:36.535Z,20.05
2022-11-19T17:47:22.769Z,19.48
2022-11-19T17:49:51.712Z,19.00
2022-11-19T17:52:29.310Z,16.75
2022-11-19T17:55:02.734Z,18.88
2022-11-19T17:57:29.851Z,17.58
2022-11-19T17:59:57.389Z,16.98
2022-11-19T18:02:24.618Z,17.17
2022-11-19T18:04:52.332Z,17.15
2022-11-19T18:07:19.520Z,17.95
2022-11-19T18:09:46.787Z,17.02
2022-11-19T18:12:19.613Z,17.35
2022-11-19T18:14:47.418Z,18.38
2022-11-19T18:17:15.506Z,18.95
2022-11-19T18:19:42.566Z,20.80
2022-11-19T18:22:20.463Z,19.20
2022-11-19T18:24:52.753Z,17.90
2022-11-19T18:27:20.045Z,16.67
2022-11-19T18:29:47.426Z,17.40
2022-11-19T18:32:17.041Z,18.40
2022-11-19T18:34:46.110Z,18.08
2022-11-19T18:37:13.331Z,18.02
2022-11-19T18:39:40.365Z,18.88
2022-11-19T18:42:12.199Z,17.98
2022-11-19T18:44:41.704Z,18.15
2022-11-19T18:47:14.715Z,30.40
2022-11-19T18:49:42.178Z,44.78
2022-11-19T18:52:15.017Z,32.40
2022-11-19T18:54:42.376Z,28.35
2022-11-19T18:57:11.209Z,26.50
2022-11-19T18:59:40.025Z,20.67
2022-11-19T19:02:07.623Z,25.05
2022-11-19T19:04:34.766Z,23.67
2022-11-19T19:07:01.956Z,21.05
2022-11-19T19:09:29.887Z,22.75
2022-11-19T19:12:15.590Z,21.65
2022-11-19T19:14:44.564Z,24.42
2022-11-19T19:17:13.224Z,23.88
2022-11-19T19:19:41.637Z,24.15
2022-11-19T19:22:09.229Z,26.75
2022-11-19T19:24:36.462Z,26.35
2022-11-19T19:27:04.321Z,27.20
2022-11-19T19:29:31.556Z,27.52
2022-11-19T19:31:58.705Z,27.10
2022-11-19T19:34:25.847Z,28.63
2022-11-19T19:36:53.616Z,26.95
2022-11-19T19:39:21.306Z,23.45
2022-11-19T19:41:51.941Z,35.53
2022-11-19T19:44:19.289Z,34.65
2022-11-19T19:46:49.580Z,29.17
2022-11-19T19:49:16.766Z,28.33
2022-11-19T19:51:43.988Z,39.17
2022-11-19T19:54:11.166Z,40.78
2022-11-19T19:56:39.004Z,33.05
2022-11-19T19:59:06.459Z,31.83
2022-11-19T20:01:36.145Z,28.50
2022-11-19T20:04:07.561Z,26.77
2022-11-19T20:06:37.636Z,25.35
2022-11-19T20:09:09.162Z,25.48
2022-11-19T20:11:39.096Z,25.25
2022-11-19T20:14:07.019Z,25.88
2022-11-19T20:16:35.283Z,28.02
2022-11-19T20:19:03.329Z,25.40
2022-11-19T20:21:34.189Z,25.48
2022-11-19T20:24:07.153Z,26.17
2022-11-19T20:26:38.805Z,25.98
2022-11-19T20:29:06.954Z,27.48
2022-11-19T20:31:35.252Z,25.38
2022-11-19T20:34:04.760Z,25.52
2022-11-19T20:36:35.299Z,25.13
2022-11-19T20:39:02.973Z,23.95
2022-11-19T20:41:48.650Z,25.63
2022-11-19T20:44:21.391Z,26.00
2022-11-19T20:46:57.118Z,27.33
2022-11-19T20:49:31.243Z,28.35
2022-11-19T20:54:26.752Z,29.92
2022-11-19T20:56:56.252Z,30.77
2022-11-19T20:59:24.223Z,29.73
2022-11-19T21:01:53.299Z,32.33
2022-11-19T21:04:21.610Z,29.60
2022-11-19T21:06:50.096Z,31.33
2022-11-19T21:09:19.855Z,32.65
2022-11-19T21:11:48.099Z,30.65
2022-11-19T21:14:15.184Z,33.15
2022-11-19T21:16:42.224Z,33.42
2022-11-19T21:19:10.779Z,32.22
2022-11-19T21:21:40.433Z,32.00
2022-11-19T21:24:07.942Z,31.05
2022-11-19T21:26:35.548Z,33.15
2022-11-19T21:29:03.092Z,32.03
2022-11-19T21:31:44.431Z,34.65
2022-11-19T21:34:14.516Z,32.42
2022-11-19T21:36:43.917Z,30.58
2022-11-19T21:39:12.251Z,33.58
2022-11-19T21:41:42.908Z,31.95
2022-11-19T21:44:13.325Z,32.85
2022-11-19T21:46:43.652Z,36.78
2022-11-19T21:49:12.074Z,35.47
2022-11-19T21:51:40.998Z,33.35
2022-11-19T21:54:08.175Z,34.17
2022-11-19T21:56:38.525Z,31.92
2022-11-19T21:59:07.775Z,31.98
2022-11-19T22:01:35.539Z,33.75
2022-11-19T22:04:03.034Z,34.20
2022-11-19T22:06:32.523Z,32.08
2022-11-19T22:08:59.562Z,30.52
2022-11-19T22:11:30.332Z,30.85
2022-11-19T22:14:04.497Z,30.55
2022-11-19T22:16:36.136Z,29.08
2022-11-19T22:19:05.683Z,30.77
2022-11-19T22:21:33.509Z,32.60
2022-11-19T22:24:00.734Z,32.38
2022-11-19T22:26:27.909Z,30.38
2022-11-19T22:28:55.803Z,44.60
2022-11-19T22:31:24.310Z,44.20
2022-11-19T22:33:52.269Z,41.95
2022-11-19T22:36:21.435Z,36.95
2022-11-19T22:38:48.861Z,34.83
2022-11-19T22:41:19.410Z,34.95
2022-11-19T22:43:47.198Z,32.78
2022-11-19T22:46:15.482Z,30.70
2022-11-19T22:48:43.011Z,29.95
2022-11-19T22:51:15.695Z,30.88
2022-11-19T22:53:43.805Z,32.95
2022-11-19T22:56:14.029Z,29.92
2022-11-19T22:58:42.812Z,30.83
2022-11-19T23:01:23.295Z,32.55
2022-11-19T23:03:51.440Z,27.23
2022-11-19T23:06:19.370Z,28.27
2022-11-19T23:08:46.728Z,27.58
2022-11-19T23:11:16.862Z,31.13
2022-11-19T23:13:45.061Z,32.42
2022-11-19T23:16:18.746Z,29.48
2022-11-19T23:18:53.141Z,28.15
2022-11-19T23:21:27.165Z,29.70
2022-11-19T23:23:55.643Z,30.23
2022-11-19T23:26:26.191Z,30.10
2022-11-19T23:28:54.489Z,29.85
2022-11-19T23:31:32.851Z,27.85
2022-11-19T23:34:00.440Z,26.73
2022-11-19T23:36:38.544Z,29.17
2022-11-19T23:39:09.621Z,26.70
2022-11-19T23:41:36.740Z,29.15
2022-11-19T23:44:04.202Z,28.42
2022-11-19T23:46:34.947Z,30.15
2022-11-19T23:49:03.891Z,26.60
2022-11-19T23:51:40.279Z,29.40
2022-11-19T23:54:07.409Z,24.88
2022-11-19T23:56:36.178Z,29.20
2022-11-19T23:59:04.886Z,27.25
